Time;durP1;ratioP1;P1;durP2;ratioP2;P2;SDS_P1;SDS_P2;PMS_P1;PMS_P2;Temp;Humidity;BMP_temperature;BMP_pressure;BME280_temperature;BME280_humidity;BME280_pressure;Samples;Min_cycle;Max_cycle;Signal;HPM_P1;HPM_P2
2023/05/08 00:00:24;;;;;;;16.27;14.77;;;13.40;84.70;;;;;;4979800;28;20053;-84
2023/05/08 00:02:50;;;;;;;18.60;15.10;;;13.40;84.70;;;;;;4995418;28;20508;-88
2023/05/08 00:05:16;;;;;;;17.17;15.45;;;13.40;84.70;;;;;;4995542;28;20040;-85
2023/05/08 00:07:42;;;;;;;17.40;15.63;;;13.40;84.80;;;;;;4995235;28;20391;-83
2023/05/08 00:10:08;;;;;;;16.38;14.70;;;13.40;84.80;;;;;;5011698;28;20080;-81
2023/05/08 00:12:35;;;;;;;16.95;14.85;;;13.30;84.80;;;;;;5012101;28;20042;-84
2023/05/08 00:15:02;;;;;;;17.52;15.75;;;13.30;84.80;;;;;;5012029;28;20041;-84
2023/05/08 00:17:28;;;;;;;17.15;15.55;;;13.30;84.90;;;;;;5012194;28;20512;-86
2023/05/08 00:19:54;;;;;;;17.30;15.60;;;13.20;84.70;;;;;;4995790;28;20132;-84
2023/05/08 00:22:19;;;;;;;18.27;16.27;;;13.20;84.80;;;;;;4995490;28;20129;-82
2023/05/08 00:24:45;;;;;;;16.80;15.15;;;13.20;84.80;;;;;;5011680;28;20124;-86
2023/05/08 00:27:11;;;;;;;17.90;16.20;;;13.10;84.70;;;;;;4979167;28;20038;-85
2023/05/08 00:29:39;;;;;;;17.77;16.02;;;13.00;84.70;;;;;;4979183;28;20061;-82
2023/05/08 00:32:05;;;;;;;17.92;16.15;;;13.00;84.70;;;;;;4979391;28;20046;-83
2023/05/08 00:34:31;;;;;;;18.05;16.15;;;13.00;84.70;;;;;;5011369;28;20513;-85
2023/05/08 00:36:57;;;;;;;17.50;15.80;;;12.90;84.90;;;;;;5011542;28;20046;-85
2023/05/08 00:39:23;;;;;;;19.17;17.08;;;13.00;85.00;;;;;;4995069;28;20401;-84
2023/05/08 00:41:48;;;;;;;16.80;15.00;;;12.90;85.00;;;;;;4999119;28;20038;-85
2023/05/08 00:44:14;;;;;;;17.20;14.95;;;12.80;85.10;;;;;;4999174;28;20042;-85
2023/05/08 00:46:41;;;;;;;19.38;15.90;;;12.80;85.00;;;;;;4983594;28;20042;-86
2023/05/08 00:49:12;;;;;;;18.50;16.58;;;12.80;85.10;;;;;;4998900;28;20442;-85
2023/05/08 00:51:38;;;;;;;19.25;17.35;;;12.70;85.10;;;;;;4982932;28;20049;-85
2023/05/08 00:54:04;;;;;;;19.25;17.35;;;12.70;85.40;;;;;;4982786;28;20053;-85
2023/05/08 00:56:35;;;;;;;18.58;16.50;;;12.70;85.20;;;;;;4998950;28;20075;-86
2023/05/08 00:59:03;;;;;;;17.88;15.98;;;12.60;85.10;;;;;;4998894;28;20046;-85
2023/05/08 01:01:31;;;;;;;18.40;15.73;;;12.60;85.30;;;;;;5015396;28;20081;-83
2023/05/08 01:03:57;;;;;;;17.38;15.60;;;12.50;85.30;;;;;;5014944;28;20034;-85
2023/05/08 01:06:22;;;;;;;20.27;17.50;;;12.50;85.40;;;;;;4998862;28;20120;-84
2023/05/08 01:08:48;;;;;;;18.00;16.13;;;12.50;85.30;;;;;;4982174;28;20486;-87
2023/05/08 01:11:46;;;;;;;17.27;15.48;;;12.50;85.30;;;;;;4998602;28;20085;-84
2023/05/08 01:14:20;;;;;;;18.45;16.38;;;12.40;85.60;;;;;;4990793;28;20090;-88
2023/05/08 01:16:48;;;;;;;18.90;16.03;;;12.40;85.70;;;;;;4998482;28;20081;-87
2023/05/08 01:19:36;;;;;;;19.80;17.70;;;12.40;85.70;;;;;;5014557;28;20308;-86
2023/05/08 01:22:29;;;;;;;18.55;16.45;;;12.40;85.80;;;;;;4998294;28;20100;-85
2023/05/08 01:25:07;;;;;;;20.05;17.30;;;12.30;86.00;;;;;;4998666;28;20137;-88
2023/05/08 01:28:01;;;;;;;18.00;16.10;;;12.30;86.00;;;;;;4998739;28;20042;-84
2023/05/08 01:31:03;;;;;;;18.85;16.88;;;12.30;86.00;;;;;;4998761;28;20465;-86
2023/05/08 01:33:40;;;;;;;19.33;17.35;;;12.20;86.00;;;;;;5014661;28;20505;-85
2023/05/08 01:36:16;;;;;;;20.08;17.42;;;12.20;85.90;;;;;;5014577;28;20438;-85
2023/05/08 01:39:03;;;;;;;19.38;17.10;;;12.20;86.20;;;;;;5014773;28;20045;-89
2023/05/08 01:41:33;;;;;;;18.70;16.80;;;12.10;86.20;;;;;;4997884;28;20042;-86
2023/05/08 01:44:09;;;;;;;19.27;17.33;;;12.10;86.50;;;;;;4998205;28;20510;-87
2023/05/08 01:46:35;;;;;;;19.05;16.80;;;12.10;86.50;;;;;;5014840;28;20041;-84
2023/05/08 01:49:16;;;;;;;17.90;16.10;;;12.10;86.70;;;;;;5016829;28;20041;-85
2023/05/08 01:51:47;;;;;;;22.15;17.42;;;12.00;86.80;;;;;;5017443;28;20045;-86
2023/05/08 01:54:21;;;;;;;20.27;17.17;;;12.00;86.70;;;;;;5034409;28;20060;-85
2023/05/08 01:56:49;;;;;;;18.92;17.02;;;12.00;86.50;;;;;;5034551;28;20513;-85
2023/05/08 01:59:20;;;;;;;19.38;17.48;;;12.00;86.60;;;;;;5033980;28;20033;-87
2023/05/08 02:01:48;;;;;;;20.42;18.23;;;12.00;86.50;;;;;;5033336;28;20489;-85
2023/05/08 02:04:15;;;;;;;19.55;17.55;;;12.00;86.40;;;;;;5017096;28;20045;-88
2023/05/08 02:06:41;;;;;;;18.77;16.77;;;12.00;86.60;;;;;;5016861;28;20042;-87
2023/05/08 02:09:09;;;;;;;19.45;17.45;;;12.00;86.90;;;;;;5016611;28;20140;-83
2023/05/08 02:11:37;;;;;;;19.80;17.70;;;12.00;86.70;;;;;;5033533;28;20054;-87
2023/05/08 02:14:05;;;;;;;20.10;17.75;;;12.00;86.70;;;;;;5033984;28;20048;-84
2023/05/08 02:16:32;;;;;;;19.23;17.33;;;12.00;86.60;;;;;;5001445;28;20044;-84
2023/05/08 02:19:00;;;;;;;22.02;19.05;;;12.00;86.70;;;;;;5016965;28;20120;-86
2023/05/08 02:21:27;;;;;;;21.90;18.58;;;12.00;86.80;;;;;;5033610;28;20486;-84
2023/05/08 02:23:56;;;;;;;19.35;17.38;;;12.00;87.00;;;;;;5017289;28;20091;-84
2023/05/08 02:26:23;;;;;;;21.45;19.10;;;11.90;87.00;;;;;;5033629;28;20086;-86
2023/05/08 02:28:50;;;;;;;18.83;16.92;;;11.90;87.30;;;;;;5017211;28;20562;-85
2023/05/08 02:31:17;;;;;;;21.00;18.80;;;11.90;87.30;;;;;;5017278;28;20409;-84
2023/05/08 02:33:44;;;;;;;39.53;19.70;;;11.90;87.50;;;;;;5033275;28;20056;-85
2023/05/08 02:36:14;;;;;;;20.75;18.58;;;11.90;87.40;;;;;;5016634;28;20040;-85
2023/05/08 02:38:43;;;;;;;20.90;18.67;;;11.90;87.60;;;;;;5017067;28;20508;-86
2023/05/08 02:41:11;;;;;;;20.35;18.27;;;11.90;87.50;;;;;;5017037;28;20132;-84
2023/05/08 02:43:37;;;;;;;20.83;18.55;;;12.00;87.60;;;;;;5016572;28;20052;-86
2023/05/08 02:46:15;;;;;;;20.75;18.35;;;12.00;87.50;;;;;;5016428;28;20041;-87
2023/05/08 02:48:53;;;;;;;21.30;19.10;;;12.00;87.50;;;;;;5016724;28;20095;-84
2023/05/08 02:51:59;;;;;;;21.83;19.55;;;12.00;87.60;;;;;;5033236;28;20041;-83
2023/05/08 02:54:43;;;;;;;20.25;18.15;;;12.00;87.60;;;;;;5030918;28;20402;-85
2023/05/08 02:57:14;;;;;;;20.83;17.98;;;11.90;87.60;;;;;;5033351;28;20398;-83
2023/05/08 02:59:50;;;;;;;23.08;18.58;;;11.90;87.60;;;;;;5016035;28;20041;-84
2023/05/08 03:02:27;;;;;;;22.55;19.05;;;11.90;87.30;;;;;;5015224;28;20048;-83
2023/05/08 03:04:59;;;;;;;20.17;17.88;;;11.90;87.30;;;;;;5015890;28;20088;-83
2023/05/08 03:07:27;;;;;;;20.17;18.05;;;11.90;87.20;;;;;;5015891;28;20059;-88
2023/05/08 03:09:59;;;;;;;20.17;17.80;;;11.80;87.20;;;;;;5015746;28;20054;-86
2023/05/08 03:12:27;;;;;;;20.27;18.08;;;11.80;87.10;;;;;;5032118;28;20041;-85
2023/05/08 03:15:03;;;;;;;23.27;19.65;;;11.70;87.30;;;;;;5031885;28;20073;-83
2023/05/08 03:17:32;;;;;;;19.67;17.38;;;11.60;87.30;;;;;;5015847;28;20056;-84
2023/05/08 03:20:05;;;;;;;19.83;17.73;;;11.60;87.30;;;;;;5032661;28;20044;-84
2023/05/08 03:22:35;;;;;;;21.73;18.35;;;11.60;87.40;;;;;;5032679;28;20045;-83
2023/05/08 03:25:05;;;;;;;19.63;17.52;;;11.50;87.30;;;;;;5016132;28;20033;-88
2023/05/08 03:27:32;;;;;;;22.45;18.77;;;11.50;87.30;;;;;;5016025;28;20077;-87
2023/05/08 03:30:00;;;;;;;22.75;20.35;;;11.40;87.80;;;;;;5032339;28;20048;-84
2023/05/08 03:32:28;;;;;;;22.85;20.40;;;11.40;87.80;;;;;;5015699;28;20095;-85
2023/05/08 03:34:57;;;;;;;18.20;16.30;;;11.30;88.00;;;;;;5016004;28;20046;-85
2023/05/08 03:37:23;;;;;;;20.98;18.10;;;11.20;88.30;;;;;;5015917;28;20037;-84
2023/05/08 03:39:50;;;;;;;21.75;19.15;;;11.20;88.30;;;;;;5015636;28;20038;-87
2023/05/08 03:42:20;;;;;;;21.20;18.92;;;11.20;87.80;;;;;;5031723;28;20505;-86
2023/05/08 03:44:50;;;;;;;21.83;18.50;;;11.20;88.10;;;;;;5031685;28;20095;-86
2023/05/08 03:47:25;;;;;;;21.55;17.83;;;11.20;88.10;;;;;;5031485;28;20038;-85
2023/05/08 03:49:51;;;;;;;23.38;20.20;;;11.20;87.80;;;;;;5015160;28;20450;-82
2023/05/08 03:52:17;;;;;;;22.63;19.25;;;11.10;87.70;;;;;;5014965;28;20080;-87
2023/05/08 03:54:43;;;;;;;23.73;19.70;;;11.10;87.80;;;;;;5031853;28;20079;-86
2023/05/08 03:57:09;;;;;;;21.88;19.30;;;11.10;87.90;;;;;;5032364;28;20617;-87
2023/05/08 03:59:40;;;;;;;21.60;19.33;;;11.10;88.00;;;;;;5015346;28;20041;-89
2023/05/08 04:02:16;;;;;;;21.20;18.90;;;11.10;87.90;;;;;;5015793;28;20675;-84
2023/05/08 04:04:46;;;;;;;23.05;19.70;;;11.10;87.80;;;;;;5031388;28;20041;-88
2023/05/08 04:07:21;;;;;;;21.85;19.38;;;11.10;87.80;;;;;;5014976;28;20142;-85
2023/05/08 04:10:20;;;;;;;22.60;19.90;;;11.00;87.80;;;;;;5031352;28;20064;-83
2023/05/08 04:13:03;;;;;;;21.30;19.02;;;11.10;88.00;;;;;;5031735;28;20439;-87
2023/05/08 04:15:32;;;;;;;22.10;19.80;;;11.10;87.80;;;;;;5018687;28;20073;-87
2023/05/08 04:18:07;;;;;;;21.73;18.65;;;11.00;88.00;;;;;;5018839;28;20103;-82
2023/05/08 04:20:33;;;;;;;21.23;18.92;;;11.00;88.00;;;;;;5035169;28;20092;-85
2023/05/08 04:23:01;;;;;;;22.63;19.85;;;11.00;88.30;;;;;;5019132;28;20399;-83
2023/05/08 04:25:28;;;;;;;21.90;19.30;;;11.10;87.90;;;;;;5018856;28;20397;-85
2023/05/08 04:27:56;;;;;;;20.42;18.23;;;11.10;88.20;;;;;;5002699;28;20459;-84
2023/05/08 04:30:22;;;;;;;22.27;19.88;;;11.00;88.30;;;;;;5002687;28;20500;-86
2023/05/08 04:32:48;;;;;;;21.88;19.55;;;11.00;88.40;;;;;;5002332;28;20050;-87
2023/05/08 04:35:14;;;;;;;24.00;18.60;;;11.00;88.40;;;;;;5018548;28;20041;-87
2023/05/08 04:37:42;;;;;;;19.67;17.58;;;11.10;88.50;;;;;;5002254;28;20099;-87
2023/05/08 04:40:09;;;;;;;22.27;19.90;;;11.10;88.40;;;;;;5018364;28;20045;-84
2023/05/08 04:42:35;;;;;;;23.90;19.83;;;11.10;88.70;;;;;;5018239;28;20049;-87
2023/05/08 04:45:01;;;;;;;24.80;18.55;;;11.10;88.80;;;;;;5018450;28;20390;-85
2023/05/08 04:47:27;;;;;;;21.40;19.10;;;11.20;88.60;;;;;;5018311;28;20100;-87
2023/05/08 04:49:52;;;;;;;23.08;18.95;;;11.20;88.80;;;;;;5034663;28;20079;-85
2023/05/08 04:52:18;;;;;;;20.30;17.90;;;11.20;88.30;;;;;;5002138;28;20095;-86
2023/05/08 04:54:44;;;;;;;22.63;18.83;;;11.30;88.30;;;;;;5001776;28;20493;-83
2023/05/08 04:57:10;;;;;;;23.70;19.55;;;11.30;88.20;;;;;;5034861;28;20102;-86
2023/05/08 04:59:35;;;;;;;22.35;18.83;;;11.30;88.50;;;;;;5017966;28;20551;-84
2023/05/08 05:02:01;;;;;;;21.58;18.98;;;11.30;88.50;;;;;;5018454;28;20041;-88
2023/05/08 05:04:28;;;;;;;20.92;17.77;;;11.40;88.40;;;;;;5001977;28;20096;-89
2023/05/08 05:06:54;;;;;;;19.05;16.92;;;11.40;88.20;;;;;;5018036;28;20386;-86
2023/05/08 05:09:19;;;;;;;20.60;18.17;;;11.40;88.40;;;;;;5001506;28;20144;-83
2023/05/08 05:11:45;;;;;;;20.33;17.88;;;11.50;88.30;;;;;;5001662;28;20071;-85
2023/05/08 05:14:11;;;;;;;20.63;18.42;;;11.50;88.30;;;;;;5017731;28;20457;-87
2023/05/08 05:16:36;;;;;;;18.60;16.60;;;11.50;88.20;;;;;;5018017;28;20037;-84
2023/05/08 05:19:03;;;;;;;18.90;16.50;;;11.50;88.20;;;;;;5001280;28;20076;-86
2023/05/08 05:21:29;;;;;;;19.52;17.52;;;11.50;88.10;;;;;;5001849;28;20389;-87
2023/05/08 05:23:55;;;;;;;21.85;17.63;;;11.60;88.00;;;;;;5001265;28;20120;-86
2023/05/08 05:26:20;;;;;;;19.15;16.70;;;11.60;87.90;;;;;;5033327;28;20148;-87
2023/05/08 05:28:47;;;;;;;21.85;17.13;;;11.70;87.80;;;;;;5034306;28;20155;-85
2023/05/08 05:31:13;;;;;;;18.85;16.95;;;11.70;87.70;;;;;;5001473;28;20080;-87
2023/05/08 05:33:39;;;;;;;19.02;17.13;;;11.80;87.70;;;;;;5017833;28;20516;-85
2023/05/08 05:36:06;;;;;;;22.05;17.23;;;11.80;87.70;;;;;;5017726;28;20042;-84
2023/05/08 05:38:32;;;;;;;19.52;17.52;;;11.90;87.80;;;;;;5033888;28;20044;-83
2023/05/08 05:40:58;;;;;;;19.17;17.23;;;11.90;87.60;;;;;;5017501;28;20398;-81
2023/05/08 05:43:23;;;;;;;25.92;17.30;;;12.00;87.60;;;;;;5000882;28;20152;-86
2023/05/08 05:45:49;;;;;;;25.52;18.30;;;12.00;87.60;;;;;;5001236;28;20041;-83
2023/05/08 05:48:15;;;;;;;19.08;17.13;;;12.00;87.60;;;;;;5017421;28;20047;-86
2023/05/08 05:50:41;;;;;;;18.08;16.23;;;12.10;87.80;;;;;;5001124;28;20046;-81
2023/05/08 05:53:06;;;;;;;21.85;17.67;;;12.00;87.60;;;;;;5033730;28;20100;-88
2023/05/08 05:55:33;;;;;;;21.10;17.42;;;12.10;87.40;;;;;;5017336;28;20037;-84
2023/05/08 05:57:58;;;;;;;19.10;16.80;;;12.10;86.80;;;;;;5001405;28;20561;-84
2023/05/08 06:00:24;;;;;;;20.23;16.75;;;12.10;87.00;;;;;;5000873;28;20124;-86
2023/05/08 06:02:50;;;;;;;19.20;17.20;;;12.20;86.80;;;;;;5000802;28;20048;-84
2023/05/08 06:05:17;;;;;;;22.27;19.15;;;12.20;87.00;;;;;;5016869;28;20045;-85
2023/05/08 06:07:46;;;;;;;18.63;16.67;;;12.20;86.90;;;;;;5002227;28;20080;-85
2023/05/08 06:10:12;;;;;;;17.30;15.45;;;12.20;87.00;;;;;;4997952;28;20128;-84
2023/05/08 06:12:37;;;;;;;20.02;16.90;;;12.30;86.70;;;;;;4997448;28;20133;-80
2023/05/08 06:15:03;;;;;;;20.25;17.23;;;12.40;86.70;;;;;;4981595;28;20042;-80
2023/05/08 06:17:29;;;;;;;18.40;16.50;;;12.40;86.50;;;;;;4998502;28;20081;-81
2023/05/08 06:19:55;;;;;;;19.48;16.73;;;12.50;86.50;;;;;;4982410;28;20081;-85
2023/05/08 06:22:28;;;;;;;18.80;16.80;;;12.50;86.20;;;;;;4983160;28;20045;-83
2023/05/08 06:24:54;;;;;;;17.95;16.15;;;12.50;85.90;;;;;;4997290;28;20048;-83
2023/05/08 06:27:21;;;;;;;19.52;17.13;;;12.50;86.10;;;;;;4981804;28;20034;-83
2023/05/08 06:29:50;;;;;;;20.08;17.08;;;12.50;85.90;;;;;;5008768;28;20724;-85
2023/05/08 06:32:17;;;;;;;18.70;16.27;;;12.60;85.80;;;;;;5008686;28;20044;-84
2023/05/08 06:34:54;;;;;;;18.15;15.88;;;12.60;85.90;;;;;;5044601;28;20032;-87
2023/05/08 06:37:20;;;;;;;19.63;17.52;;;12.60;85.80;;;;;;5013511;28;20045;-82
2023/05/08 06:39:46;;;;;;;19.02;17.05;;;12.70;85.60;;;;;;5046689;28;20056;-87
2023/05/08 06:42:11;;;;;;;19.02;16.65;;;12.70;85.50;;;;;;5029906;28;20056;-84
2023/05/08 06:44:37;;;;;;;16.77;15.07;;;12.80;85.80;;;;;;5027057;28;20049;-83
2023/05/08 06:47:03;;;;;;;18.92;16.55;;;12.90;85.70;;;;;;5011421;28;20033;-85
2023/05/08 06:49:28;;;;;;;18.60;16.45;;;13.00;85.60;;;;;;5025563;28;20073;-79
2023/05/08 06:51:54;;;;;;;18.90;16.98;;;13.00;85.30;;;;;;5017953;28;20022;-81
2023/05/08 06:54:20;;;;;;;19.05;16.48;;;13.10;85.30;;;;;;5032540;28;20029;-81
2023/05/08 06:56:45;;;;;;;18.98;16.35;;;13.10;85.40;;;;;;5030312;28;20110;-78
2023/05/08 06:59:11;;;;;;;19.50;17.40;;;13.20;84.80;;;;;;4996966;28;20038;-79
2023/05/08 07:01:37;;;;;;;18.75;16.55;;;13.20;84.90;;;;;;5013345;28;20042;-79
2023/05/08 07:04:03;;;;;;;19.38;16.80;;;13.40;85.30;;;;;;4996364;28;20076;-78
2023/05/08 07:06:30;;;;;;;19.58;17.48;;;13.50;85.00;;;;;;4998911;28;20505;-80
2023/05/08 07:08:56;;;;;;;21.30;16.98;;;13.50;84.70;;;;;;5021116;28;20498;-81
2023/05/08 07:11:22;;;;;;;19.65;17.55;;;13.60;84.40;;;;;;5018897;28;20111;-79
2023/05/08 07:13:48;;;;;;;19.38;17.27;;;13.70;84.50;;;;;;5011783;28;20487;-79
2023/05/08 07:16:14;;;;;;;19.67;17.05;;;13.80;84.10;;;;;;5001622;28;20053;-86
2023/05/08 07:18:40;;;;;;;19.15;17.25;;;13.90;84.20;;;;;;4988662;28;20041;-84
2023/05/08 07:21:06;;;;;;;18.50;16.52;;;14.00;83.80;;;;;;4998541;28;20046;-87
2023/05/08 07:23:35;;;;;;;18.55;16.75;;;14.00;83.80;;;;;;5001554;28;20115;-84
2023/05/08 07:26:01;;;;;;;17.80;15.88;;;14.10;83.80;;;;;;4982977;28;20065;-83
2023/05/08 07:28:27;;;;;;;18.48;16.40;;;14.20;83.60;;;;;;5008634;28;20052;-85
2023/05/08 07:30:52;;;;;;;17.73;15.90;;;14.30;83.40;;;;;;5005119;28;20045;-82
2023/05/08 07:33:18;;;;;;;19.50;16.90;;;14.30;83.10;;;;;;4982912;28;20425;-82
2023/05/08 07:35:44;;;;;;;18.83;16.83;;;14.20;83.30;;;;;;5005138;28;20529;-83
2023/05/08 07:38:10;;;;;;;17.85;15.95;;;14.20;82.70;;;;;;4988114;28;20041;-84
2023/05/08 07:40:36;;;;;;;18.85;16.08;;;14.20;82.90;;;;;;4981638;28;20045;-84
2023/05/08 07:43:02;;;;;;;18.38;16.52;;;14.20;83.00;;;;;;5003124;28;20057;-86
2023/05/08 07:45:28;;;;;;;18.60;16.70;;;14.10;82.40;;;;;;4990882;28;20053;-87
2023/05/08 07:47:59;;;;;;;18.27;16.48;;;14.20;83.00;;;;;;5004517;28;20045;-84
2023/05/08 07:50:25;;;;;;;16.08;13.95;;;14.10;82.40;;;;;;5005414;28;20899;-85
2023/05/08 07:52:51;;;;;;;17.75;15.82;;;14.10;83.10;;;;;;5009204;28;20076;-83
2023/05/08 07:55:20;;;;;;;18.42;16.52;;;14.20;83.10;;;;;;5007994;28;20042;-85
2023/05/08 07:57:46;;;;;;;18.73;16.77;;;14.10;83.00;;;;;;5015742;28;20049;-86
2023/05/08 08:00:14;;;;;;;20.23;15.88;;;14.20;83.30;;;;;;4984560;28;20045;-85
2023/05/08 08:02:40;;;;;;;18.65;16.45;;;14.20;83.40;;;;;;4984549;28;20042;-86
2023/05/08 08:05:07;;;;;;;18.60;16.60;;;14.20;83.40;;;;;;5001325;28;20493;-86
2023/05/08 08:07:32;;;;;;;18.17;16.38;;;14.10;83.30;;;;;;4998482;28;20466;-84
2023/05/08 08:09:59;;;;;;;19.90;17.90;;;14.30;83.50;;;;;;4999641;28;20053;-85
2023/05/08 08:12:25;;;;;;;19.13;17.15;;;14.30;83.50;;;;;;5005648;28;20125;-85
2023/05/08 08:14:51;;;;;;;18.70;16.80;;;14.40;83.60;;;;;;5021175;28;20567;-85
2023/05/08 08:17:17;;;;;;;19.58;17.52;;;14.50;83.50;;;;;;4990773;28;20041;-87
2023/05/08 08:19:43;;;;;;;18.40;16.10;;;14.50;83.60;;;;;;5007364;28;20508;-86
2023/05/08 08:22:08;;;;;;;19.88;16.58;;;14.60;83.60;;;;;;5002318;28;20099;-85
2023/05/08 08:24:34;;;;;;;18.90;16.88;;;14.70;83.50;;;;;;5003338;28;20050;-87
2023/05/08 08:27:00;;;;;;;20.10;17.80;;;14.70;83.40;;;;;;5000689;28;20060;-80
2023/05/08 08:29:26;;;;;;;20.00;16.05;;;14.80;82.90;;;;;;5017395;28;20048;-79
2023/05/08 08:31:51;;;;;;;19.67;17.48;;;15.00;83.30;;;;;;5000493;28;20041;-81
2023/05/08 08:34:17;;;;;;;21.27;18.13;;;15.10;82.90;;;;;;5010452;28;20072;-80
2023/05/08 08:36:43;;;;;;;28.48;20.73;;;15.40;82.50;;;;;;5015187;28;20052;-78
2023/05/08 08:39:08;;;;;;;20.25;18.05;;;15.40;82.10;;;;;;4994767;28;20409;-81
2023/05/08 08:41:34;;;;;;;19.17;17.23;;;15.50;81.90;;;;;;5004087;28;20052;-78
2023/05/08 08:44:00;;;;;;;19.92;17.92;;;15.60;81.80;;;;;;4978408;28;20042;-79
2023/05/08 08:46:27;;;;;;;19.83;17.73;;;15.80;81.70;;;;;;4999266;28;20056;-77
2023/05/08 08:48:55;;;;;;;18.38;16.40;;;15.90;81.70;;;;;;5013025;28;20083;-78
2023/05/08 08:51:30;;;;;;;20.33;18.08;;;16.00;81.30;;;;;;5000054;28;20486;-84
2023/05/08 08:54:05;;;;;;;19.95;17.85;;;16.00;81.20;;;;;;5011629;28;20103;-82
2023/05/08 08:56:33;;;;;;;19.33;17.38;;;16.10;81.00;;;;;;5022523;28;20133;-87
2023/05/08 08:59:00;;;;;;;20.50;18.35;;;16.30;81.20;;;;;;4987456;28;20049;-83
2023/05/08 09:01:28;;;;;;;18.90;17.00;;;16.40;81.20;;;;;;5000140;28;20096;-86
2023/05/08 09:03:58;;;;;;;20.08;18.02;;;16.30;80.60;;;;;;5022238;28;20044;-86
2023/05/08 09:06:26;;;;;;;18.73;16.88;;;16.40;80.90;;;;;;4992578;28;20041;-84
2023/05/08 09:08:55;;;;;;;19.80;17.65;;;16.50;80.70;;;;;;5006589;28;20053;-81
2023/05/08 09:11:21;;;;;;;20.58;18.23;;;16.70;80.50;;;;;;5013070;28;20050;-84
2023/05/08 09:13:47;;;;;;;19.02;17.05;;;16.70;79.80;;;;;;5003529;28;20046;-84
2023/05/08 09:16:13;;;;;;;21.42;18.90;;;16.70;78.80;;;;;;4992630;28;20107;-83
2023/05/08 09:18:38;;;;;;;20.25;18.13;;;16.70;78.60;;;;;;5000652;28;20486;-85
2023/05/08 09:21:07;;;;;;;20.60;18.40;;;16.70;79.10;;;;;;4989323;28;20041;-85
2023/05/08 09:23:35;;;;;;;22.23;20.02;;;16.70;79.30;;;;;;4990167;28;20038;-85
2023/05/08 09:26:01;;;;;;;21.20;19.00;;;16.70;78.60;;;;;;5003101;28;20076;-85
2023/05/08 09:28:27;;;;;;;20.42;18.48;;;16.80;79.20;;;;;;4989811;28;20037;-84
2023/05/08 09:30:57;;;;;;;22.17;19.88;;;16.90;79.30;;;;;;5006163;28;20034;-86
2023/05/08 09:33:26;;;;;;;22.85;20.42;;;17.00;79.10;;;;;;4988532;28;20072;-87
2023/05/08 09:35:53;;;;;;;20.98;18.83;;;17.00;78.30;;;;;;5005751;28;20064;-85
2023/05/08 09:38:45;;;;;;;20.90;18.80;;;17.30;78.80;;;;;;4991016;28;20053;-87
2023/05/08 09:41:15;;;;;;;21.13;18.85;;;17.50;79.00;;;;;;5016242;28;20557;-87
2023/05/08 09:43:58;;;;;;;19.20;17.10;;;17.70;78.50;;;;;;5017282;28;20416;-88
2023/05/08 09:46:25;;;;;;;21.52;19.30;;;17.90;78.10;;;;;;4985099;28;20034;-88
2023/05/08 09:48:56;;;;;;;20.65;18.45;;;18.00;77.90;;;;;;4999822;28;20486;-85
2023/05/08 09:51:25;;;;;;;22.08;19.75;;;18.20;77.30;;;;;;5005449;28;20049;-87
2023/05/08 09:53:56;;;;;;;23.38;21.08;;;18.40;77.10;;;;;;5012547;28;20056;-86
2023/05/08 09:56:32;;;;;;;21.95;19.65;;;18.60;77.00;;;;;;5024373;28;20128;-86
2023/05/08 09:58:58;;;;;;;21.77;19.58;;;18.70;76.00;;;;;;4997984;28;20052;-88
2023/05/08 10:01:34;;;;;;;23.05;20.65;;;18.60;75.00;;;;;;5008060;28;20041;-87
2023/05/08 10:04:01;;;;;;;24.38;20.85;;;18.80;76.50;;;;;;5000466;28;20041;-85
2023/05/08 10:06:28;;;;;;;22.85;20.45;;;19.00;77.10;;;;;;5012443;28;20041;-86
2023/05/08 10:09:11;;;;;;;24.63;21.98;;;19.30;76.50;;;;;;5027615;28;20133;-87
2023/05/08 10:11:39;;;;;;;23.05;20.65;;;19.30;75.20;;;;;;5014961;28;20062;-88
2023/05/08 10:14:04;;;;;;;24.92;22.40;;;19.40;75.00;;;;;;4997518;28;20049;-88
2023/05/08 10:16:40;;;;;;;22.73;20.42;;;19.50;74.60;;;;;;4996267;28;20084;-89
2023/05/08 10:19:12;;;;;;;22.00;19.80;;;19.70;74.70;;;;;;5008151;28;20504;-86
2023/05/08 10:21:41;;;;;;;24.67;22.10;;;19.70;74.40;;;;;;5004369;28;20458;-86
2023/05/08 10:24:25;;;;;;;24.05;21.55;;;19.70;73.30;;;;;;5014378;28;20045;-87
2023/05/08 10:27:13;;;;;;;24.02;21.25;;;19.80;72.90;;;;;;5010762;28;20478;-88
2023/05/08 10:29:46;;;;;;;26.60;23.92;;;19.90;73.50;;;;;;5019108;28;20398;-86
2023/05/08 10:32:14;;;;;;;24.15;21.65;;;19.90;72.10;;;;;;5025601;28;20042;-86
2023/05/08 10:34:40;;;;;;;24.60;21.98;;;19.90;72.40;;;;;;5012595;28;20413;-85
2023/05/08 10:37:09;;;;;;;25.23;22.67;;;20.00;73.40;;;;;;4993689;28;20124;-86
2023/05/08 10:39:36;;;;;;;24.20;21.70;;;20.00;72.60;;;;;;5029498;28;20088;-84
2023/05/08 10:42:02;;;;;;;23.48;21.08;;;20.30;73.30;;;;;;5006468;28;20432;-87
2023/05/08 10:44:29;;;;;;;24.05;21.65;;;20.50;72.80;;;;;;4986982;28;20038;-86
2023/05/08 10:47:18;;;;;;;24.05;21.65;;;20.60;72.70;;;;;;5017585;28;20080;-85
2023/05/08 10:50:11;;;;;;;24.10;21.60;;;20.60;71.50;;;;;;5006903;28;20071;-84
2023/05/08 10:52:49;;;;;;;25.13;22.65;;;20.60;70.00;;;;;;5006248;28;20045;-85
2023/05/08 10:55:32;;;;;;;23.30;20.95;;;20.70;71.40;;;;;;5004633;28;20487;-85
2023/05/08 10:58:03;;;;;;;25.27;22.70;;;20.80;70.50;;;;;;4993685;28;20084;-85
2023/05/08 11:00:52;;;;;;;23.15;20.75;;;20.80;70.80;;;;;;5006359;28;20053;-87
2023/05/08 11:03:18;;;;;;;23.33;20.92;;;21.00;71.30;;;;;;5002558;28;20096;-87
2023/05/08 11:05:46;;;;;;;23.98;21.55;;;21.10;70.70;;;;;;5011010;28;20037;-86
2023/05/08 11:08:28;;;;;;;25.25;22.55;;;21.20;70.60;;;;;;4989004;28;20054;-85
2023/05/08 11:11:00;;;;;;;22.63;20.42;;;21.50;70.40;;;;;;4986162;28;20132;-86
2023/05/08 11:13:34;;;;;;;25.13;22.42;;;21.50;68.90;;;;;;4998430;28;20390;-86
2023/05/08 11:16:00;;;;;;;23.92;21.58;;;21.50;69.70;;;;;;5003614;28;20045;-86
2023/05/08 11:18:26;;;;;;;23.48;20.98;;;21.30;67.50;;;;;;5003790;28;20477;-85
2023/05/08 11:20:57;;;;;;;24.23;21.85;;;21.40;68.40;;;;;;5003677;28;20045;-86
2023/05/08 11:23:28;;;;;;;25.60;23.00;;;21.20;68.80;;;;;;4980355;28;20084;-85
2023/05/08 11:26:19;;;;;;;25.23;22.50;;;21.10;69.20;;;;;;4996783;28;20037;-86
2023/05/08 11:28:57;;;;;;;25.70;23.05;;;21.10;69.40;;;;;;5008008;28;20103;-86
2023/05/08 11:31:43;;;;;;;26.05;23.38;;;21.10;69.00;;;;;;4993509;28;20124;-84
2023/05/08 11:34:41;;;;;;;24.75;22.33;;;21.10;68.50;;;;;;5011748;28;20042;-84
2023/05/08 11:37:15;;;;;;;25.70;23.10;;;21.10;68.40;;;;;;4984356;28;20128;-85
2023/05/08 11:39:40;;;;;;;;;;;21.00;69.50;;;;;;4993812;28;20061;-87
2023/05/08 11:42:25;;;;;;;25.88;23.15;;;21.10;70.40;;;;;;4981051;28;20365;-86
2023/05/08 11:45:00;;;;;;;25.50;22.85;;;21.00;69.60;;;;;;4996606;28;20041;-83
2023/05/08 11:47:35;;;;;;;24.45;22.02;;;21.10;69.80;;;;;;5012253;28;20038;-83
2023/05/08 11:50:01;;;;;;;24.23;21.73;;;21.10;69.80;;;;;;4996312;28;20494;-85
2023/05/08 11:52:30;;;;;;;25.20;22.67;;;21.00;69.70;;;;;;4996331;28;20041;-84
2023/05/08 11:54:56;;;;;;;25.20;22.60;;;21.10;70.30;;;;;;4996704;28;20041;-83
2023/05/08 11:57:22;;;;;;;27.95;23.52;;;21.00;70.30;;;;;;4980167;28;20057;-83
2023/05/08 11:59:50;;;;;;;26.23;23.63;;;21.30;70.60;;;;;;4979219;28;20038;-84
2023/05/08 12:02:16;;;;;;;25.38;22.67;;;21.30;70.70;;;;;;4979522;28;20073;-83
2023/05/08 12:04:46;;;;;;;24.90;22.23;;;21.30;70.50;;;;;;4979399;28;20045;-84
2023/05/08 12:07:11;;;;;;;25.02;22.45;;;21.20;70.40;;;;;;5011174;28;20038;-83
2023/05/08 12:09:37;;;;;;;24.98;22.30;;;21.20;70.80;;;;;;4979208;28;20073;-82
2023/05/08 12:12:03;;;;;;;28.05;24.02;;;21.20;70.20;;;;;;4979117;28;20517;-84
2023/05/08 12:14:29;;;;;;;27.27;24.60;;;21.20;70.50;;;;;;4995111;28;20041;-83
2023/05/08 12:16:55;;;;;;;27.45;24.67;;;21.20;70.20;;;;;;4995564;28;20044;-84
2023/05/08 12:19:20;;;;;;;26.17;23.48;;;21.20;70.60;;;;;;4995720;28;20478;-83
2023/05/08 12:21:50;;;;;;;26.17;23.52;;;21.20;70.30;;;;;;4995930;28;20597;-84
2023/05/08 12:24:21;;;;;;;27.77;24.92;;;21.20;70.60;;;;;;4996221;28;20030;-84
2023/05/08 12:26:47;;;;;;;28.27;25.30;;;21.30;71.00;;;;;;5012578;28;20044;-83
2023/05/08 12:29:13;;;;;;;27.52;24.48;;;21.20;70.30;;;;;;4995755;28;20445;-83
2023/05/08 12:31:39;;;;;;;27.20;24.35;;;21.10;70.50;;;;;;4979170;28;20049;-82
2023/05/08 12:34:05;;;;;;;28.08;25.27;;;20.90;70.70;;;;;;4979438;28;20102;-82
2023/05/08 12:36:35;;;;;;;28.02;25.10;;;20.90;71.30;;;;;;4999075;28;20474;-83
2023/05/08 12:39:15;;;;;;;26.75;24.00;;;20.90;71.90;;;;;;5000036;28;20446;-83